Pismo Beach, California
Current Conditions -  °F | °C
As of 9:56 PM on Friday 28 Nov 2014 (Local Time) from KSBP Reporting Station
Clear Clear  
Wind Chill:   Ceiling: Unl
Heat Index:   Visibility: 10mi
Dew Point:   Wind: 0mph
Humidity: 82%   Direction: NA
Pressure: 29.92"   Gusts: NA
Location:  35.16°N, 120.66°W
Report Text: KSBP 290556Z AUTO 00000KT 10SM CLR 07/04 A2992 RMK AO2 SLP132 T00720044 10206 20072 53000
Loading
Personal Weather Stations






























Interactive Weather Map New forecast layout! Learn more

10-Day Weather Forecast

Advertisements
Track Severe Weather on mobile